Time;durP1;ratioP1;P1;durP2;ratioP2;P2;SDS_P1;SDS_P2;PMS_P1;PMS_P2;Temp;Humidity;BMP_temperature;BMP_pressure;BME280_temperature;BME280_humidity;BME280_pressure;Samples;Min_cycle;Max_cycle;Signal;HPM_P1;HPM_P2
2023/06/01 05:01:39;;;;;;;;;32.75;28.75;;;;;;;;5711187;22;11482;-72
2023/06/01 05:04:04;;;;;;;;;35.75;32.50;;;;;;;;6347137;22;11435;-70
2023/06/01 05:06:29;;;;;;;;;30.25;30.00;;;;;;;;6376592;22;8888;-71
2023/06/01 05:08:54;;;;;;;;;39.00;34.25;;;;;;;;6376492;22;8751;-74
2023/06/01 05:11:21;;;;;;;;;32.75;29.50;;;;;;;;6376511;22;8928;-71
2023/06/01 05:13:46;;;;;;;;;28.75;27.00;;;;;;;;6375872;22;8796;-71
2023/06/01 05:16:11;;;;;;;;;44.00;36.00;;;;;;;;6375933;22;11566;-69
2023/06/01 05:18:36;;;;;;;;;36.25;31.50;;;;;;;;6375234;22;8764;-70
2023/06/01 05:21:02;;;;;;;;;33.25;31.25;;;;;;;;6376117;22;9534;-71
2023/06/01 05:23:28;;;;;;;;;32.25;31.25;;;;;;;;6376321;22;8844;-70
2023/06/01 05:26:02;;;;;;;;;32.50;29.25;;;;;;;;6376216;22;8779;-66
2023/06/01 05:28:30;;;;;;;;;30.75;29.25;;;;;;;;6347268;22;11538;-66
2023/06/01 05:30:55;;;;;;;;;41.25;35.00;;;;;;;;6375363;22;11435;-66
2023/06/01 05:33:21;;;;;;;;;35.75;33.25;;;;;;;;6376135;22;11485;-67
2023/06/01 05:35:46;;;;;;;;;39.00;34.75;;;;;;;;6376202;22;8792;-67
2023/06/01 05:38:11;;;;;;;;;45.50;35.50;;;;;;;;6376367;22;8775;-66
2023/06/01 05:40:36;;;;;;;;;34.50;29.25;;;;;;;;6376242;22;9534;-69
2023/06/01 05:43:01;;;;;;;;;40.75;34.75;;;;;;;;6376349;22;8739;-74
2023/06/01 05:45:26;;;;;;;;;34.75;32.00;;;;;;;;6375822;22;8760;-70
2023/06/01 05:47:52;;;;;;;;;25.25;24.75;;;;;;;;6376140;22;8877;-69
2023/06/01 05:50:17;;;;;;;;;38.50;32.00;;;;;;;;6347869;22;8782;-69
2023/06/01 05:52:42;;;;;;;;;42.75;33.75;;;;;;;;6376206;22;8913;-69
2023/06/01 05:55:08;;;;;;;;;39.00;34.50;;;;;;;;6376126;22;8776;-71
2023/06/01 05:57:33;;;;;;;;;42.25;36.25;;;;;;;;6376305;22;8786;-73
2023/06/01 05:59:58;;;;;;;;;40.75;32.25;;;;;;;;6375575;22;8794;-75
2023/06/01 06:02:23;;;;;;;;;40.75;31.75;;;;;;;;6375813;22;8787;-72
2023/06/01 06:04:48;;;;;;;;;39.50;33.00;;;;;;;;6376154;22;8773;-71
2023/06/01 06:07:13;;;;;;;;;42.75;36.00;;;;;;;;6375878;22;8853;-74
2023/06/01 06:09:39;;;;;;;;;37.00;29.75;;;;;;;;6376266;22;8817;-71
2023/06/01 06:12:05;;;;;;;;;43.50;35.50;;;;;;;;6376256;22;8870;-72
2023/06/01 06:14:31;;;;;;;;;44.50;34.25;;;;;;;;6375572;22;8724;-72
2023/06/01 06:16:57;;;;;;;;;48.50;38.25;;;;;;;;6376287;22;11534;-70
2023/06/01 06:19:22;;;;;;;;;46.25;37.25;;;;;;;;6375843;22;8736;-71
2023/06/01 06:21:47;;;;;;;;;41.00;34.75;;;;;;;;6376320;22;8845;-70
2023/06/01 06:24:12;;;;;;;;;36.75;33.50;;;;;;;;6376364;22;8759;-78
2023/06/01 06:26:37;;;;;;;;;46.00;38.00;;;;;;;;6375788;22;8788;-77
2023/06/01 06:29:02;;;;;;;;;41.25;36.00;;;;;;;;6347402;22;8814;-73
2023/06/01 06:31:28;;;;;;;;;38.75;34.00;;;;;;;;6376485;22;8748;-72
2023/06/01 06:33:53;;;;;;;;;36.75;33.00;;;;;;;;6347294;22;8768;-73
2023/06/01 06:36:18;;;;;;;;;38.25;34.50;;;;;;;;6367605;22;8879;-72
2023/06/01 06:38:44;;;;;;;;;43.50;35.75;;;;;;;;6336227;22;9555;-72
2023/06/01 06:41:10;;;;;;;;;40.00;33.75;;;;;;;;6368490;22;8852;-71
2023/06/01 06:43:35;;;;;;;;;36.75;32.25;;;;;;;;6369175;22;8764;-71
2023/06/01 06:46:00;;;;;;;;;39.50;36.25;;;;;;;;6368788;22;8763;-71
2023/06/01 06:48:25;;;;;;;;;39.00;33.25;;;;;;;;6367351;22;8854;-72
2023/06/01 06:50:51;;;;;;;;;40.25;34.00;;;;;;;;6367462;22;8724;-72
2023/06/01 06:53:17;;;;;;;;;45.75;38.50;;;;;;;;6339605;22;8794;-72
2023/06/01 06:55:43;;;;;;;;;42.50;36.00;;;;;;;;6365930;22;8744;-72
2023/06/01 06:58:10;;;;;;;;;40.00;34.00;;;;;;;;6368587;22;11445;-72
2023/06/01 07:00:35;;;;;;;;;36.25;32.25;;;;;;;;6368105;22;8732;-72
2023/06/01 07:03:01;;;;;;;;;40.25;33.50;;;;;;;;6367352;22;11458;-72
2023/06/01 07:05:26;;;;;;;;;41.75;34.50;;;;;;;;6369376;22;8759;-72
2023/06/01 07:07:51;;;;;;;;;36.25;33.00;;;;;;;;6368400;22;8767;-71
2023/06/01 07:10:16;;;;;;;;;40.75;33.75;;;;;;;;6340450;22;8815;-71
2023/06/01 07:12:41;;;;;;;;;28.00;25.50;;;;;;;;6368493;22;9912;-72
2023/06/01 07:15:07;;;;;;;;;38.00;32.50;;;;;;;;6368873;22;8775;-71
2023/06/01 07:17:32;;;;;;;;;38.00;32.50;;;;;;;;6367303;22;8759;-71
2023/06/01 07:19:57;;;;;;;;;36.75;33.50;;;;;;;;6374627;22;9469;-71
2023/06/01 07:22:23;;;;;;;;;34.25;28.50;;;;;;;;6375214;22;8828;-71
2023/06/01 07:24:48;;;;;;;;;40.25;34.50;;;;;;;;6375067;22;8768;-71
2023/06/01 07:27:13;;;;;;;;;28.75;27.50;;;;;;;;6374754;22;9508;-71
2023/06/01 07:29:38;;;;;;;;;40.25;34.00;;;;;;;;6375517;22;9634;-71
2023/06/01 07:32:04;;;;;;;;;35.75;28.75;;;;;;;;6375079;22;8781;-71
2023/06/01 07:34:29;;;;;;;;;39.00;33.25;;;;;;;;6346930;22;8767;-71
2023/06/01 07:36:58;;;;;;;;;35.50;31.75;;;;;;;;6347265;22;8775;-71
2023/06/01 07:39:23;;;;;;;;;38.50;32.75;;;;;;;;6375173;22;8735;-72
2023/06/01 07:41:50;;;;;;;;;31.00;30.00;;;;;;;;6375041;22;11495;-73
2023/06/01 07:44:18;;;;;;;;;35.25;32.75;;;;;;;;6375543;22;8720;-73
2023/06/01 07:46:43;;;;;;;;;36.25;30.50;;;;;;;;6374926;22;11513;-71
2023/06/01 07:49:13;;;;;;;;;34.50;31.50;;;;;;;;6375610;22;11523;-71
2023/06/01 07:51:38;;;;;;;;;32.75;28.75;;;;;;;;6375306;22;8736;-71
2023/06/01 07:54:04;;;;;;;;;37.50;31.00;;;;;;;;6375110;22;11463;-71
2023/06/01 07:56:29;;;;;;;;;33.50;31.50;;;;;;;;6375218;22;8747;-70
2023/06/01 07:58:54;;;;;;;;;34.00;30.00;;;;;;;;6347297;22;8890;-71
2023/06/01 08:01:20;;;;;;;;;35.75;31.00;;;;;;;;6345420;22;8933;-71
2023/06/01 08:03:45;;;;;;;;;32.25;30.50;;;;;;;;6374830;22;8764;-71
2023/06/01 08:06:11;;;;;;;;;31.75;29.75;;;;;;;;6374236;22;8783;-68
2023/06/01 08:08:36;;;;;;;;;31.75;29.75;;;;;;;;6374739;22;8771;-68
2023/06/01 08:11:02;;;;;;;;;33.75;30.00;;;;;;;;6344133;22;8760;-68
2023/06/01 08:13:27;;;;;;;;;28.75;28.50;;;;;;;;6373758;22;8782;-68
2023/06/01 08:15:52;;;;;;;;;32.50;30.75;;;;;;;;6375252;22;8766;-68
2023/06/01 08:18:19;;;;;;;;;28.25;28.00;;;;;;;;6375141;22;8748;-68
2023/06/01 08:20:45;;;;;;;;;32.25;30.50;;;;;;;;6375077;22;8758;-68
2023/06/01 08:23:10;;;;;;;;;28.50;27.00;;;;;;;;6345566;22;11465;-68
2023/06/01 08:25:35;;;;;;;;;26.00;25.00;;;;;;;;6345679;22;8767;-68
2023/06/01 08:28:00;;;;;;;;;29.50;27.00;;;;;;;;6375041;22;8763;-68
2023/06/01 08:30:26;;;;;;;;;30.00;28.00;;;;;;;;6375096;22;8858;-71
2023/06/01 08:32:51;;;;;;;;;26.75;24.00;;;;;;;;6374577;22;9932;-72
2023/06/01 08:35:17;;;;;;;;;30.50;27.25;;;;;;;;6374476;22;8736;-72
2023/06/01 08:37:42;;;;;;;;;31.50;27.50;;;;;;;;6374839;22;8759;-72
2023/06/01 08:40:09;;;;;;;;;35.00;27.25;;;;;;;;6374746;22;8767;-72
2023/06/01 08:42:45;;;;;;;;;31.50;30.50;;;;;;;;6374684;22;8758;-72
2023/06/01 08:45:11;;;;;;;;;33.00;31.25;;;;;;;;6373752;22;11424;-73
2023/06/01 08:47:37;;;;;;;;;31.75;29.00;;;;;;;;6374632;22;12680;-73
2023/06/01 08:50:03;;;;;;;;;22.50;17.00;;;;;;;;6372439;22;8763;-72
2023/06/01 08:52:31;;;;;;;;;32.25;29.50;;;;;;;;6374784;22;11446;-75
2023/06/01 08:54:58;;;;;;;;;31.00;26.75;;;;;;;;6374534;22;8700;-75
2023/06/01 08:57:23;;;;;;;;;32.25;28.00;;;;;;;;6374922;22;11483;-73
2023/06/01 08:59:48;;;;;;;;;34.25;30.50;;;;;;;;6374543;22;12710;-72
2023/06/01 09:02:15;;;;;;;;;26.25;26.25;;;;;;;;6373984;22;8763;-73
2023/06/01 09:04:44;;;;;;;;;29.00;28.50;;;;;;;;6374579;22;8774;-73
2023/06/01 09:07:09;;;;;;;;;23.75;22.25;;;;;;;;6346538;22;11438;-73
2023/06/01 09:09:34;;;;;;;;;24.75;22.75;;;;;;;;6374764;22;11454;-72
2023/06/01 09:12:35;;;;;;;;;33.50;28.75;;;;;;;;6374816;22;8799;-72
2023/06/01 09:15:00;;;;;;;;;27.50;24.25;;;;;;;;6217232;23;8731;-72
2023/06/01 09:17:25;;;;;;;;;27.40;24.40;;;;;;;;6217386;23;11398;-73
2023/06/01 09:19:54;;;;;;;;;35.25;30.00;;;;;;;;6217640;23;8774;-72
2023/06/01 09:22:19;;;;;;;;;30.50;26.00;;;;;;;;6191697;23;8743;-72
2023/06/01 09:25:12;;;;;;;;;31.75;30.25;;;;;;;;6217266;23;11562;-72
2023/06/01 09:27:42;;;;;;;;;26.50;25.75;;;;;;;;6215779;23;8845;-73
2023/06/01 09:30:07;;;;;;;;;34.25;31.00;;;;;;;;6216889;23;11459;-73
2023/06/01 09:32:33;;;;;;;;;32.50;30.00;;;;;;;;6217315;23;11507;-72
2023/06/01 09:34:58;;;;;;;;;33.00;28.25;;;;;;;;6216682;23;8754;-72
2023/06/01 09:37:23;;;;;;;;;27.50;25.25;;;;;;;;6217002;23;11631;-72
2023/06/01 09:39:49;;;;;;;;;33.25;29.25;;;;;;;;6216913;23;9191;-73
2023/06/01 09:42:14;;;;;;;;;40.00;33.75;;;;;;;;6216832;23;9952;-72
2023/06/01 09:44:40;;;;;;;;;22.00;21.00;;;;;;;;6216513;23;8755;-73
2023/06/01 09:47:06;;;;;;;;;25.75;22.00;;;;;;;;6217187;23;8782;-73
2023/06/01 09:49:37;;;;;;;;;29.75;28.75;;;;;;;;6328453;22;12333;-73
2023/06/01 09:52:05;;;;;;;;;24.50;23.25;;;;;;;;6347333;22;8833;-73
2023/06/01 09:54:33;;;;;;;;;22.75;21.50;;;;;;;;6375738;22;11383;-73
2023/06/01 09:56:59;;;;;;;;;29.25;26.50;;;;;;;;6375900;22;11422;-73
2023/06/01 09:59:25;;;;;;;;;27.25;25.50;;;;;;;;6375806;22;12116;-73
2023/06/01 10:01:52;;;;;;;;;33.00;29.00;;;;;;;;6374887;22;11416;-72
2023/06/01 10:04:20;;;;;;;;;35.25;32.25;;;;;;;;6375581;22;11383;-73
2023/06/01 10:06:45;;;;;;;;;25.25;25.25;;;;;;;;6346917;22;11452;-73
2023/06/01 10:09:18;;;;;;;;;27.00;25.00;;;;;;;;6375892;22;11387;-72
2023/06/01 10:11:43;;;;;;;;;29.25;27.00;;;;;;;;6375888;22;8736;-73
2023/06/01 10:14:09;;;;;;;;;28.00;27.50;;;;;;;;6375870;22;12144;-73
2023/06/01 10:16:35;;;;;;;;;27.75;22.25;;;;;;;;6375904;22;8732;-73
2023/06/01 10:19:00;;;;;;;;;33.75;27.75;;;;;;;;6375575;22;11391;-73
2023/06/01 10:21:26;;;;;;;;;25.25;25.25;;;;;;;;6375161;22;8732;-73
2023/06/01 10:23:51;;;;;;;;;23.75;20.00;;;;;;;;6375482;22;9534;-73
2023/06/01 10:26:18;;;;;;;;;26.25;25.75;;;;;;;;6375562;22;8780;-73
2023/06/01 10:28:45;;;;;;;;;22.00;18.75;;;;;;;;6375825;22;8720;-72
2023/06/01 10:31:28;;;;;;;;;24.75;24.75;;;;;;;;6375650;22;11429;-73
2023/06/01 10:33:58;;;;;;;;;29.50;27.50;;;;;;;;6375294;22;11386;-73
2023/06/01 10:36:23;;;;;;;;;24.00;21.75;;;;;;;;6375422;22;11392;-72
2023/06/01 10:38:48;;;;;;;;;26.25;24.00;;;;;;;;6375922;22;12130;-72
2023/06/01 10:41:28;;;;;;;;;22.25;21.50;;;;;;;;6375775;22;8724;-71
2023/06/01 10:43:53;;;;;;;;;20.00;18.75;;;;;;;;6375601;22;8731;-72
2023/06/01 10:46:35;;;;;;;;;28.75;21.25;;;;;;;;6375423;22;11493;-72
2023/06/01 10:49:00;;;;;;;;;26.25;25.75;;;;;;;;6346965;22;9224;-72
2023/06/01 10:51:27;;;;;;;;;19.75;19.25;;;;;;;;6375519;22;11386;-72
2023/06/01 10:53:52;;;;;;;;;27.25;26.25;;;;;;;;6375504;22;8728;-73
2023/06/01 10:56:18;;;;;;;;;16.50;16.25;;;;;;;;6375453;22;12231;-73
2023/06/01 10:58:43;;;;;;;;;19.20;19.00;;;;;;;;6376169;22;8748;-73
2023/06/01 11:01:09;;;;;;;;;14.75;14.00;;;;;;;;6374732;22;8779;-72
2023/06/01 11:03:42;;;;;;;;;23.75;22.50;;;;;;;;6375503;22;8756;-73
2023/06/01 11:06:22;;;;;;;;;27.00;24.75;;;;;;;;6375064;22;11490;-73
2023/06/01 11:08:47;;;;;;;;;25.25;23.50;;;;;;;;6374899;22;11466;-72
2023/06/01 11:11:12;;;;;;;;;24.20;23.00;;;;;;;;6376130;22;11400;-73
2023/06/01 11:13:39;;;;;;;;;24.00;22.50;;;;;;;;6375797;22;8747;-72
2023/06/01 11:16:04;;;;;;;;;18.75;18.50;;;;;;;;6375215;22;8712;-73
2023/06/01 11:18:41;;;;;;;;;21.25;18.75;;;;;;;;6374815;22;11400;-72
2023/06/01 11:21:27;;;;;;;;;22.50;19.50;;;;;;;;6375233;22;8743;-72
2023/06/01 11:23:54;;;;;;;;;20.50;20.50;;;;;;;;6374565;22;11358;-72
2023/06/01 11:26:20;;;;;;;;;23.50;20.75;;;;;;;;6375019;22;11389;-72
2023/06/01 11:28:47;;;;;;;;;21.25;20.50;;;;;;;;6375552;22;11487;-72
2023/06/01 11:31:18;;;;;;;;;21.00;20.50;;;;;;;;6375671;22;11377;-72
2023/06/01 11:33:57;;;;;;;;;24.25;21.50;;;;;;;;6375271;22;11500;-72
2023/06/01 11:36:25;;;;;;;;;26.00;24.25;;;;;;;;6375394;22;11370;-77
2023/06/01 11:38:51;;;;;;;;;19.00;17.50;;;;;;;;6375412;22;11362;-72
2023/06/01 11:41:16;;;;;;;;;21.50;18.75;;;;;;;;6347130;22;11444;-72
2023/06/01 11:43:42;;;;;;;;;29.50;25.75;;;;;;;;6375853;22;8744;-72
2023/06/01 11:46:09;;;;;;;;;17.25;15.75;;;;;;;;6375687;22;8772;-72
2023/06/01 11:48:35;;;;;;;;;19.25;18.25;;;;;;;;6375270;22;8724;-72
2023/06/01 11:51:00;;;;;;;;;19.00;18.00;;;;;;;;6375045;22;11471;-74
2023/06/01 11:53:25;;;;;;;;;16.00;16.00;;;;;;;;6374998;22;8748;-72
2023/06/01 11:55:54;;;;;;;;;18.00;17.75;;;;;;;;6375486;22;8790;-72
2023/06/01 11:58:29;;;;;;;;;8.00;8.00;;;;;;;;6375415;22;8747;-73
2023/06/01 12:00:55;;;;;;;;;18.25;17.50;;;;;;;;6374401;22;12068;-73
2023/06/01 12:03:21;;;;;;;;;17.50;17.00;;;;;;;;6375069;22;11359;-73
2023/06/01 12:05:48;;;;;;;;;15.00;15.00;;;;;;;;6375505;22;11172;-73
2023/06/01 12:08:21;;;;;;;;;18.75;17.25;;;;;;;;6375292;22;8752;-73
2023/06/01 12:10:47;;;;;;;;;17.25;15.00;;;;;;;;6375148;22;11363;-72
2023/06/01 12:13:13;;;;;;;;;17.00;15.00;;;;;;;;6375413;22;11360;-72
2023/06/01 12:15:38;;;;;;;;;18.50;17.50;;;;;;;;6375231;22;11361;-72
2023/06/01 12:18:04;;;;;;;;;17.25;16.50;;;;;;;;6346068;22;11478;-72
2023/06/01 12:20:30;;;;;;;;;15.00;15.00;;;;;;;;6375219;22;8843;-71
2023/06/01 12:22:59;;;;;;;;;16.75;16.25;;;;;;;;6375067;22;8728;-71
2023/06/01 12:25:25;;;;;;;;;18.50;17.50;;;;;;;;6375433;22;11313;-72
2023/06/01 12:28:19;;;;;;;;;21.50;17.75;;;;;;;;6375174;22;12098;-71
2023/06/01 12:30:45;;;;;;;;;15.50;14.25;;;;;;;;6340445;22;9529;-71
2023/06/01 12:33:29;;;;;;;;;13.75;12.00;;;;;;;;6374899;22;11111;-72
2023/06/01 12:35:55;;;;;;;;;16.00;15.00;;;;;;;;6371776;22;10983;-71
2023/06/01 12:38:20;;;;;;;;;13.00;12.75;;;;;;;;6372913;22;11930;-72
2023/06/01 12:40:45;;;;;;;;;12.75;10.50;;;;;;;;6374226;22;8752;-72
2023/06/01 12:43:20;;;;;;;;;14.25;13.75;;;;;;;;6346553;22;8772;-73
2023/06/01 12:45:45;;;;;;;;;18.50;16.50;;;;;;;;6374368;22;8724;-73
2023/06/01 12:48:29;;;;;;;;;13.25;13.25;;;;;;;;6374656;22;11414;-73
2023/06/01 12:50:54;;;;;;;;;11.00;11.00;;;;;;;;6376608;22;8814;-73
2023/06/01 12:53:19;;;;;;;;;19.00;15.00;;;;;;;;6376239;22;11666;-74
2023/06/01 12:55:46;;;;;;;;;15.75;13.25;;;;;;;;6376001;22;8838;-76
2023/06/01 12:58:11;;;;;;;;;14.00;14.00;;;;;;;;6375525;22;8747;-72
2023/06/01 13:00:36;;;;;;;;;16.00;14.50;;;;;;;;6375675;22;10878;-72
2023/06/01 13:03:02;;;;;;;;;14.75;11.50;;;;;;;;6376134;22;8771;-72
2023/06/01 13:05:27;;;;;;;;;17.25;14.75;;;;;;;;6376515;22;8788;-73
2023/06/01 13:07:52;;;;;;;;;17.00;14.00;;;;;;;;6376289;22;8785;-73
2023/06/01 13:10:17;;;;;;;;;12.00;12.00;;;;;;;;6376396;22;8739;-73
2023/06/01 13:12:42;;;;;;;;;17.00;16.00;;;;;;;;6376111;22;8759;-72
2023/06/01 13:15:08;;;;;;;;;15.50;14.25;;;;;;;;6375739;22;8854;-73
2023/06/01 13:17:33;;;;;;;;;13.75;13.50;;;;;;;;6376294;22;8758;-73
2023/06/01 13:19:59;;;;;;;;;12.00;12.00;;;;;;;;6376383;22;8752;-73
2023/06/01 13:22:25;;;;;;;;;12.50;12.50;;;;;;;;6375533;22;9480;-73
2023/06/01 13:24:50;;;;;;;;;17.75;13.75;;;;;;;;6348026;22;9421;-74
2023/06/01 13:27:15;;;;;;;;;14.00;13.25;;;;;;;;6347575;22;8912;-73
2023/06/01 13:29:41;;;;;;;;;7.00;7.00;;;;;;;;6376060;22;8748;-74
2023/06/01 13:32:07;;;;;;;;;12.75;12.25;;;;;;;;6375868;22;8740;-73
2023/06/01 13:34:33;;;;;;;;;20.75;18.00;;;;;;;;6376006;22;8744;-74
2023/06/01 13:36:58;;;;;;;;;20.25;16.75;;;;;;;;6375742;22;8756;-73
2023/06/01 13:39:23;;;;;;;;;17.75;17.75;;;;;;;;6375893;22;9516;-73
2023/06/01 13:41:48;;;;;;;;;16.25;15.50;;;;;;;;6375860;22;8759;-73
2023/06/01 13:44:14;;;;;;;;;14.75;14.50;;;;;;;;6375911;22;8759;-74
2023/06/01 13:46:39;;;;;;;;;20.00;16.25;;;;;;;;6347056;22;8856;-74
2023/06/01 13:49:04;;;;;;;;;14.50;12.75;;;;;;;;6376458;22;9584;-73
2023/06/01 13:51:29;;;;;;;;;13.00;11.50;;;;;;;;6375239;22;8764;-73
2023/06/01 13:53:55;;;;;;;;;16.50;13.00;;;;;;;;6375284;22;8747;-73
2023/06/01 13:56:21;;;;;;;;;22.00;16.50;;;;;;;;6376072;22;8731;-73
2023/06/01 13:58:46;;;;;;;;;15.00;15.00;;;;;;;;6346948;22;8774;-73
2023/06/01 14:01:11;;;;;;;;;18.50;16.00;;;;;;;;6375583;22;8798;-73
2023/06/01 14:03:36;;;;;;;;;16.25;15.50;;;;;;;;6376184;22;8778;-74
2023/06/01 14:06:02;;;;;;;;;14.00;14.00;;;;;;;;6375546;22;8782;-74
2023/06/01 14:08:27;;;;;;;;;17.00;14.75;;;;;;;;6375590;22;8747;-72
2023/06/01 14:10:52;;;;;;;;;10.75;10.75;;;;;;;;6374589;22;9537;-74
2023/06/01 14:13:17;;;;;;;;;15.25;13.75;;;;;;;;6375878;22;8744;-70
2023/06/01 14:15:42;;;;;;;;;12.75;12.75;;;;;;;;6375522;22;9627;-72
2023/06/01 14:18:08;;;;;;;;;12.75;11.00;;;;;;;;6375451;22;8763;-72
2023/06/01 14:20:35;;;;;;;;;13.75;11.50;;;;;;;;6375865;22;8759;-72
2023/06/01 14:23:00;;;;;;;;;12.50;12.50;;;;;;;;6375685;22;8724;-72
2023/06/01 14:25:25;;;;;;;;;10.75;10.75;;;;;;;;6375195;22;10955;-72
2023/06/01 14:27:51;;;;;;;;;13.00;13.00;;;;;;;;6375119;22;8861;-71
2023/06/01 14:30:16;;;;;;;;;11.25;10.25;;;;;;;;6375078;22;8740;-71
2023/06/01 14:32:41;;;;;;;;;10.75;9.50;;;;;;;;6347272;22;9604;-71
2023/06/01 14:35:07;;;;;;;;;9.50;9.50;;;;;;;;6375418;22;8770;-71
2023/06/01 14:37:32;;;;;;;;;15.50;13.00;;;;;;;;6375478;22;8775;-70
2023/06/01 14:39:57;;;;;;;;;11.75;11.25;;;;;;;;6376087;22;8752;-71
2023/06/01 14:42:22;;;;;;;;;15.25;15.25;;;;;;;;6375953;22;8790;-70
2023/06/01 14:44:48;;;;;;;;;9.50;9.50;;;;;;;;6375880;22;9508;-71
2023/06/01 14:47:14;;;;;;;;;11.00;10.00;;;;;;;;6375590;22;8748;-71
2023/06/01 14:49:39;;;;;;;;;15.75;12.25;;;;;;;;6375731;22;9532;-71
2023/06/01 14:52:04;;;;;;;;;13.00;11.75;;;;;;;;6374554;22;8732;-71
2023/06/01 14:54:30;;;;;;;;;10.00;10.00;;;;;;;;6375056;22;8764;-70
2023/06/01 14:56:55;;;;;;;;;9.00;9.00;;;;;;;;6374900;22;8748;-71
2023/06/01 14:59:20;;;;;;;;;10.75;10.75;;;;;;;;6376058;22;8824;-71
2023/06/01 15:01:45;;;;;;;;;10.00;9.00;;;;;;;;6375133;22;8755;-70
2023/06/01 15:04:10;;;;;;;;;10.25;9.50;;;;;;;;6375543;22;8783;-70
2023/06/01 15:06:37;;;;;;;;;12.50;11.00;;;;;;;;6375342;22;8937;-70
2023/06/01 15:09:03;;;;;;;;;13.00;12.25;;;;;;;;6375879;22;8720;-70
2023/06/01 15:11:28;;;;;;;;;12.75;11.00;;;;;;;;6374321;22;10589;-70
2023/06/01 15:13:54;;;;;;;;;9.00;8.00;;;;;;;;6375303;22;8751;-70
2023/06/01 15:16:19;;;;;;;;;12.50;12.25;;;;;;;;6375527;22;8760;-70
2023/06/01 15:18:44;;;;;;;;;12.00;11.50;;;;;;;;6375143;22;8740;-71
2023/06/01 15:21:09;;;;;;;;;10.25;10.25;;;;;;;;6375562;22;8735;-70
2023/06/01 15:23:34;;;;;;;;;12.25;10.50;;;;;;;;6376304;22;8775;-70
2023/06/01 15:26:00;;;;;;;;;10.75;10.50;;;;;;;;6375676;22;8776;-71
2023/06/01 15:28:25;;;;;;;;;10.75;9.50;;;;;;;;6375409;22;8740;-71
2023/06/01 15:30:50;;;;;;;;;12.75;11.75;;;;;;;;6375323;22;9488;-70
2023/06/01 15:33:16;;;;;;;;;9.75;9.75;;;;;;;;6375379;22;8799;-70
2023/06/01 15:35:41;;;;;;;;;16.25;13.50;;;;;;;;6347369;22;8776;-71
2023/06/01 15:38:06;;;;;;;;;12.50;12.50;;;;;;;;6375691;22;8770;-70
2023/06/01 15:40:31;;;;;;;;;10.25;10.00;;;;;;;;6375401;22;8756;-71
2023/06/01 15:42:56;;;;;;;;;16.50;12.25;;;;;;;;6375930;22;8732;-71
2023/06/01 15:45:22;;;;;;;;;10.00;9.25;;;;;;;;6375623;22;9597;-71
2023/06/01 15:47:47;;;;;;;;;11.25;10.50;;;;;;;;6375614;22;8787;-71
2023/06/01 15:50:12;;;;;;;;;11.25;11.25;;;;;;;;6375036;22;8782;-70
2023/06/01 15:52:37;;;;;;;;;5.25;5.25;;;;;;;;6375299;22;8744;-70
2023/06/01 15:55:03;;;;;;;;;9.50;9.50;;;;;;;;6374850;22;8740;-71
2023/06/01 15:57:28;;;;;;;;;10.50;7.00;;;;;;;;6375743;22;8760;-70
2023/06/01 15:59:53;;;;;;;;;12.25;10.25;;;;;;;;6375791;22;8759;-70
2023/06/01 16:02:18;;;;;;;;;3.25;3.25;;;;;;;;6374980;22;9572;-71
2023/06/01 16:04:43;;;;;;;;;8.00;8.00;;;;;;;;6375566;22;8795;-70
2023/06/01 16:07:09;;;;;;;;;13.25;12.00;;;;;;;;6375732;22;8752;-69
2023/06/01 16:09:34;;;;;;;;;15.50;12.00;;;;;;;;6375400;22;8778;-71
2023/06/01 16:12:00;;;;;;;;;12.75;11.50;;;;;;;;6375452;22;8740;-68
2023/06/01 16:14:25;;;;;;;;;11.25;10.75;;;;;;;;6375503;22;8760;-71
2023/06/01 16:16:50;;;;;;;;;12.25;11.00;;;;;;;;6375283;22;8759;-69
2023/06/01 16:19:17;;;;;;;;;10.00;10.00;;;;;;;;6375441;22;8874;-68
2023/06/01 16:21:42;;;;;;;;;10.75;9.75;;;;;;;;6375691;22;8735;-71
2023/06/01 16:24:07;;;;;;;;;9.50;9.50;;;;;;;;6376321;22;10758;-70
2023/06/01 16:26:33;;;;;;;;;8.50;8.50;;;;;;;;6348568;22;8882;-68
2023/06/01 16:28:58;;;;;;;;;13.50;13.50;;;;;;;;6376315;22;8755;-67
2023/06/01 16:31:23;;;;;;;;;11.00;9.75;;;;;;;;6376672;22;8755;-67
2023/06/01 16:33:48;;;;;;;;;11.50;9.75;;;;;;;;6376756;22;8755;-67
2023/06/01 16:36:13;;;;;;;;;10.50;10.00;;;;;;;;6376651;22;9619;-68
2023/06/01 16:38:39;;;;;;;;;11.00;10.00;;;;;;;;6376616;22;8798;-68
2023/06/01 16:41:04;;;;;;;;;9.25;8.25;;;;;;;;6376062;22;8932;-68
2023/06/01 16:43:29;;;;;;;;;8.50;8.00;;;;;;;;6348098;22;8779;-68
2023/06/01 16:45:55;;;;;;;;;9.50;7.50;;;;;;;;6376711;22;8820;-69
2023/06/01 16:48:20;;;;;;;;;8.75;6.75;;;;;;;;6347562;22;8808;-68
2023/06/01 16:50:46;;;;;;;;;9.00;8.00;;;;;;;;6376776;22;8850;-71
2023/06/01 16:53:12;;;;;;;;;10.00;7.25;;;;;;;;6376479;22;8932;-68
2023/06/01 16:55:37;;;;;;;;;12.25;10.00;;;;;;;;6376310;22;10722;-68
2023/06/01 16:58:02;;;;;;;;;9.00;7.75;;;;;;;;6376221;22;8764;-68
2023/06/01 17:00:28;;;;;;;;;10.50;7.25;;;;;;;;6375080;22;8736;-68
2023/06/01 17:02:53;;;;;;;;;9.00;9.00;;;;;;;;6347230;22;9414;-68
2023/06/01 17:05:18;;;;;;;;;9.50;4.00;;;;;;;;6376369;22;8756;-69
2023/06/01 17:07:43;;;;;;;;;9.00;8.75;;;;;;;;6376081;22;8770;-70
2023/06/01 17:10:09;;;;;;;;;8.75;8.75;;;;;;;;6376513;22;8783;-70
2023/06/01 17:12:34;;;;;;;;;8.25;8.25;;;;;;;;6376320;22;8740;-70
2023/06/01 17:14:59;;;;;;;;;11.50;7.75;;;;;;;;6375967;22;9496;-69
2023/06/01 17:17:25;;;;;;;;;10.00;10.00;;;;;;;;6376453;22;8783;-70
2023/06/01 17:19:50;;;;;;;;;10.25;10.25;;;;;;;;6376549;22;8728;-67
2023/06/01 17:22:15;;;;;;;;;9.75;8.75;;;;;;;;6347753;22;8755;-67
2023/06/01 17:24:41;;;;;;;;;10.25;9.50;;;;;;;;6375960;22;8746;-71
2023/06/01 17:27:06;;;;;;;;;10.00;8.75;;;;;;;;6376419;22;8790;-68
2023/06/01 17:29:32;;;;;;;;;8.50;7.50;;;;;;;;6375977;22;9127;-69
2023/06/01 17:31:57;;;;;;;;;2.50;2.00;;;;;;;;6376414;22;8766;-69
2023/06/01 17:34:22;;;;;;;;;2.50;2.50;;;;;;;;6376065;22;8767;-74
2023/06/01 17:36:47;;;;;;;;;10.25;10.25;;;;;;;;6376014;22;8732;-75
2023/06/01 17:39:14;;;;;;;;;10.25;10.25;;;;;;;;6376129;22;8755;-81
2023/06/01 17:41:42;;;;;;;;;10.25;9.25;;;;;;;;6376176;22;8783;-75
2023/06/01 17:44:08;;;;;;;;;5.75;5.75;;;;;;;;6376070;22;10701;-74
2023/06/01 17:46:33;;;;;;;;;7.00;7.00;;;;;;;;6376073;22;11415;-74
2023/06/01 17:48:58;;;;;;;;;8.00;7.75;;;;;;;;6375997;22;8739;-76
2023/06/01 17:51:23;;;;;;;;;7.00;7.00;;;;;;;;6376426;22;8759;-74
2023/06/01 17:53:48;;;;;;;;;9.50;7.00;;;;;;;;6375775;22;8732;-77
2023/06/01 17:56:14;;;;;;;;;10.00;10.00;;;;;;;;6376239;22;8748;-78
2023/06/01 17:58:40;;;;;;;;;6.75;6.75;;;;;;;;6347604;22;8752;-76
2023/06/01 18:01:05;;;;;;;;;8.25;7.00;;;;;;;;6375272;22;8732;-77
2023/06/01 18:03:30;;;;;;;;;10.00;7.00;;;;;;;;6375679;22;11150;-76
2023/06/01 18:05:56;;;;;;;;;8.75;6.50;;;;;;;;6375989;22;8829;-78
2023/06/01 18:08:21;;;;;;;;;6.75;6.75;;;;;;;;6376066;22;8870;-77
2023/06/01 18:10:46;;;;;;;;;6.50;6.50;;;;;;;;6376245;22;9535;-77
2023/06/01 18:13:12;;;;;;;;;7.75;7.75;;;;;;;;6376279;22;8736;-76
2023/06/01 18:15:37;;;;;;;;;7.50;7.50;;;;;;;;6376410;22;8758;-75
2023/06/01 18:18:02;;;;;;;;;10.75;8.00;;;;;;;;6375644;22;8755;-77
2023/06/01 18:20:27;;;;;;;;;6.75;5.50;;;;;;;;6375557;22;8808;-77
2023/06/01 18:22:52;;;;;;;;;9.50;6.50;;;;;;;;6375528;22;8732;-76
2023/06/01 18:25:17;;;;;;;;;8.25;6.00;;;;;;;;6376598;22;8852;-82
2023/06/01 18:27:43;;;;;;;;;6.75;4.75;;;;;;;;6375683;22;8744;-75
2023/06/01 18:30:08;;;;;;;;;7.00;7.00;;;;;;;;6347260;22;8810;-79
2023/06/01 18:32:33;;;;;;;;;7.00;6.25;;;;;;;;6375350;22;8740;-73
2023/06/01 18:34:59;;;;;;;;;6.00;6.00;;;;;;;;6375492;22;8766;-75
2023/06/01 18:37:24;;;;;;;;;8.00;8.00;;;;;;;;6375779;22;8728;-76
2023/06/01 18:39:49;;;;;;;;;5.25;3.00;;;;;;;;6346850;22;8785;-74
2023/06/01 18:42:15;;;;;;;;;9.00;8.00;;;;;;;;6375660;22;8740;-73
2023/06/01 18:44:40;;;;;;;;;6.00;4.75;;;;;;;;6375416;22;8752;-74
2023/06/01 18:47:05;;;;;;;;;8.00;8.00;;;;;;;;6375136;22;8763;-72
2023/06/01 18:49:32;;;;;;;;;8.50;7.75;;;;;;;;6370540;22;9501;-70
2023/06/01 18:51:57;;;;;;;;;9.50;7.50;;;;;;;;6373842;22;8717;-70
2023/06/01 18:54:22;;;;;;;;;7.00;6.00;;;;;;;;6374734;22;10861;-69
2023/06/01 18:56:47;;;;;;;;;10.50;9.00;;;;;;;;6375585;22;8751;-69
2023/06/01 18:59:13;;;;;;;;;5.50;5.50;;;;;;;;6375385;22;8752;-70
2023/06/01 19:01:38;;;;;;;;;11.50;11.50;;;;;;;;6346829;22;9481;-70
2023/06/01 19:04:03;;;;;;;;;10.25;8.25;;;;;;;;6375500;22;8735;-71
2023/06/01 19:06:31;;;;;;;;;12.25;12.25;;;;;;;;6375719;22;8751;-73
2023/06/01 19:08:59;;;;;;;;;12.75;10.50;;;;;;;;6375014;22;8728;-72
2023/06/01 19:11:25;;;;;;;;;9.00;6.75;;;;;;;;6375617;22;10784;-70
2023/06/01 19:13:50;;;;;;;;;10.50;10.25;;;;;;;;6375314;22;10734;-68
2023/06/01 19:16:16;;;;;;;;;11.50;10.25;;;;;;;;6346338;22;8874;-70
2023/06/01 19:18:48;;;;;;;;;9.25;8.25;;;;;;;;6374446;22;8701;-68
2023/06/01 19:21:18;;;;;;;;;7.75;7.75;;;;;;;;6346539;22;10819;-67
2023/06/01 19:23:53;;;;;;;;;14.75;11.75;;;;;;;;6375850;22;10899;-69
2023/06/01 19:26:21;;;;;;;;;12.75;11.00;;;;;;;;6374684;22;10884;-69